createdAt,value
2022-12-15T00:01:01.628Z,4.02
2022-12-15T00:02:22.589Z,4.13
2022-12-15T00:03:43.073Z,4.14
2022-12-15T00:05:03.350Z,3.79
2022-12-15T00:06:23.930Z,3.81
2022-12-15T00:07:44.443Z,3.75
2022-12-15T00:09:07.552Z,3.58
2022-12-15T00:10:31.360Z,3.65
2022-12-15T00:11:51.950Z,3.56
2022-12-15T00:13:12.465Z,3.60
2022-12-15T00:14:33.056Z,3.66
2022-12-15T00:15:53.051Z,3.63
2022-12-15T00:17:12.965Z,3.65
2022-12-15T00:18:32.884Z,3.58
2022-12-15T00:19:52.819Z,3.55
2022-12-15T00:21:16.908Z,3.63
2022-12-15T00:22:37.433Z,3.69
2022-12-15T00:23:57.865Z,3.70
2022-12-15T00:25:17.783Z,3.65
2022-12-15T00:26:38.330Z,3.64
2022-12-15T00:27:58.379Z,3.65
2022-12-15T00:29:18.378Z,3.66
2022-12-15T00:30:38.901Z,3.62
2022-12-15T00:31:58.876Z,3.70
2022-12-15T00:33:19.398Z,3.67
2022-12-15T00:34:39.839Z,3.71
2022-12-15T00:36:00.290Z,3.62
2022-12-15T00:37:20.672Z,3.49
2022-12-15T00:38:42.338Z,3.51
2022-12-15T00:39:43.983Z,3.57
2022-12-15T00:40:45.680Z,3.65
2022-12-15T00:41:47.411Z,3.70
2022-12-15T00:42:49.504Z,3.73
2022-12-15T00:43:51.584Z,3.72
2022-12-15T00:44:53.245Z,3.79
2022-12-15T00:46:13.666Z,3.83
2022-12-15T00:47:15.401Z,3.90
2022-12-15T00:48:17.066Z,3.94
2022-12-15T00:49:37.697Z,3.97
2022-12-15T00:50:54.656Z,3.90
2022-12-15T00:52:14.659Z,3.93
2022-12-15T00:53:34.664Z,3.97
2022-12-15T00:54:54.630Z,3.99
2022-12-15T00:56:15.120Z,4.01
2022-12-15T00:57:35.021Z,4.00
2022-12-15T00:58:54.859Z,4.00
2022-12-15T01:00:15.215Z,4.01
2022-12-15T01:01:35.638Z,4.02
2022-12-15T01:02:56.187Z,4.07
2022-12-15T01:04:16.651Z,4.09
2022-12-15T01:05:37.248Z,4.08
2022-12-15T01:06:57.811Z,4.13
2022-12-15T01:08:18.699Z,4.15
2022-12-15T01:09:39.088Z,4.19
2022-12-15T01:10:59.600Z,4.19
2022-12-15T01:12:20.033Z,4.13
2022-12-15T01:13:40.484Z,4.21
2022-12-15T01:15:00.389Z,4.11
2022-12-15T01:16:20.940Z,3.92
2022-12-15T01:17:41.405Z,3.95
2022-12-15T01:19:01.778Z,3.88
2022-12-15T01:20:20.373Z,4.02
2022-12-15T01:21:25.075Z,4.01
2022-12-15T01:22:26.980Z,4.01
2022-12-15T01:23:29.791Z,4.12
2022-12-15T01:24:31.764Z,4.11
2022-12-15T01:25:33.467Z,4.12
2022-12-15T01:26:35.180Z,4.18
2022-12-15T01:27:36.993Z,4.10
2022-12-15T01:28:38.660Z,4.16
2022-12-15T01:29:40.406Z,4.24
2022-12-15T01:30:42.138Z,4.26
2022-12-15T01:31:44.160Z,4.20
2022-12-15T01:32:46.588Z,4.30
2022-12-15T01:33:48.387Z,4.28
2022-12-15T01:34:50.158Z,4.28
2022-12-15T01:35:59.476Z,4.29
2022-12-15T01:37:01.140Z,4.34
2022-12-15T01:38:02.821Z,4.34
2022-12-15T01:39:04.543Z,4.12
2022-12-15T01:40:26.476Z,4.32
2022-12-15T01:41:29.177Z,4.29
2022-12-15T01:42:31.025Z,4.29
2022-12-15T01:43:35.974Z,4.27
2022-12-15T01:44:37.813Z,4.22
2022-12-15T01:45:57.793Z,4.21
2022-12-15T01:46:59.714Z,4.17
2022-12-15T01:48:06.028Z,4.21
2022-12-15T01:49:14.316Z,4.22
2022-12-15T01:50:16.511Z,4.21
2022-12-15T01:51:25.350Z,4.15
2022-12-15T01:52:27.089Z,4.22
2022-12-15T01:53:33.799Z,4.18
2022-12-15T01:54:58.016Z,4.09
2022-12-15T01:56:00.409Z,4.14
2022-12-15T01:57:09.037Z,4.16
2022-12-15T01:58:14.116Z,4.10
2022-12-15T01:59:27.142Z,4.01
2022-12-15T02:00:29.775Z,4.01
2022-12-15T02:01:31.587Z,4.00
2022-12-15T02:02:39.931Z,3.90
2022-12-15T02:03:44.254Z,3.81
2022-12-15T02:04:46.405Z,3.77
2022-12-15T02:05:48.305Z,3.71
2022-12-15T02:06:50.760Z,3.66
2022-12-15T02:07:52.421Z,3.63
2022-12-15T02:08:57.156Z,3.67
2022-12-15T02:10:01.629Z,3.68
2022-12-15T02:11:26.338Z,3.61
2022-12-15T02:12:54.361Z,3.47
2022-12-15T02:13:58.935Z,3.50
2022-12-15T02:15:11.153Z,3.43
2022-12-15T02:16:28.663Z,3.33
2022-12-15T02:17:58.140Z,3.31
2022-12-15T02:19:18.944Z,3.28
2022-12-15T02:20:32.914Z,3.18
2022-12-15T02:21:59.253Z,3.09
2022-12-15T02:23:15.382Z,3.06
2022-12-15T02:24:39.922Z,3.07
2022-12-15T02:26:12.243Z,3.09
2022-12-15T02:27:25.422Z,3.08
2022-12-15T02:28:54.698Z,3.01
2022-12-15T02:30:22.858Z,3.06
2022-12-15T02:31:50.777Z,3.00
2022-12-15T02:33:31.327Z,2.97
2022-12-15T02:34:33.303Z,3.01
2022-12-15T02:35:44.075Z,3.04
2022-12-15T02:36:51.450Z,2.96
2022-12-15T02:37:53.509Z,2.97
2022-12-15T02:38:55.278Z,2.73
2022-12-15T02:39:57.027Z,3.01
2022-12-15T02:41:01.038Z,3.07
2022-12-15T02:42:02.804Z,3.07
2022-12-15T02:43:06.710Z,3.06
2022-12-15T02:44:35.545Z,2.83
2022-12-15T02:45:58.780Z,2.99
2022-12-15T02:47:22.528Z,2.98
2022-12-15T02:48:24.185Z,2.94
2022-12-15T02:49:43.846Z,2.96
2022-12-15T02:51:06.146Z,2.88
2022-12-15T02:52:26.960Z,2.92
2022-12-15T02:54:13.552Z,2.92
2022-12-15T02:55:37.307Z,2.85
2022-12-15T02:56:52.264Z,2.91
2022-12-15T02:58:16.474Z,2.98
2022-12-15T02:59:29.437Z,2.99
2022-12-15T03:00:38.038Z,3.01
2022-12-15T03:01:57.549Z,3.06
2022-12-15T03:02:59.983Z,3.04
2022-12-15T03:04:04.947Z,2.96
2022-12-15T03:05:07.570Z,3.03
2022-12-15T03:06:09.619Z,3.03
2022-12-15T03:07:11.312Z,3.06
2022-12-15T03:08:13.112Z,3.15
2022-12-15T03:09:14.779Z,3.15
2022-12-15T03:10:17.570Z,3.18
2022-12-15T03:11:19.231Z,3.11
2022-12-15T03:12:20.894Z,3.13
2022-12-15T03:13:23.013Z,3.29
2022-12-15T03:14:27.479Z,3.31
2022-12-15T03:15:34.924Z,3.35
2022-12-15T03:16:37.139Z,3.35
2022-12-15T03:17:38.948Z,3.38
2022-12-15T03:18:40.620Z,3.43
2022-12-15T03:19:42.338Z,3.44
2022-12-15T03:20:44.020Z,3.48
2022-12-15T03:21:45.686Z,3.55
2022-12-15T03:22:47.408Z,3.57
2022-12-15T03:23:49.095Z,3.61
2022-12-15T03:24:50.751Z,3.63
2022-12-15T03:25:52.440Z,3.63
2022-12-15T03:26:54.120Z,3.65
2022-12-15T03:27:56.065Z,3.72
2022-12-15T03:28:57.904Z,3.78
2022-12-15T03:29:59.565Z,3.76
2022-12-15T03:31:01.310Z,3.76
2022-12-15T03:32:03.442Z,3.83
2022-12-15T03:33:05.524Z,3.87
2022-12-15T03:34:07.432Z,3.91
2022-12-15T03:35:09.276Z,3.94
2022-12-15T03:36:10.974Z,3.98
2022-12-15T03:37:12.718Z,4.06
2022-12-15T03:38:14.386Z,4.02
2022-12-15T03:39:16.307Z,4.14
2022-12-15T03:40:18.226Z,4.15
2022-12-15T03:41:20.164Z,4.17
2022-12-15T03:42:42.383Z,4.16
2022-12-15T03:43:44.408Z,4.24
2022-12-15T03:44:46.179Z,4.20
2022-12-15T03:45:48.080Z,4.27
2022-12-15T03:46:49.784Z,4.25
2022-12-15T03:47:51.926Z,4.35
2022-12-15T03:48:54.156Z,4.37
2022-12-15T03:49:55.865Z,4.34
2022-12-15T03:50:57.533Z,4.35
2022-12-15T03:51:59.191Z,4.38
2022-12-15T03:53:03.283Z,4.43
2022-12-15T03:54:05.031Z,4.42
2022-12-15T03:55:07.790Z,4.42
2022-12-15T03:56:09.464Z,4.42
2022-12-15T03:57:11.232Z,4.48
2022-12-15T03:58:12.893Z,4.54
2022-12-15T03:59:14.608Z,4.56
2022-12-15T04:00:18.652Z,4.60
2022-12-15T04:01:32.297Z,4.60
2022-12-15T04:02:34.406Z,4.54
2022-12-15T04:03:36.461Z,4.54
2022-12-15T04:04:38.285Z,4.62
2022-12-15T04:05:39.997Z,4.58
2022-12-15T04:06:41.742Z,4.65
2022-12-15T04:07:43.428Z,4.66
2022-12-15T04:08:45.118Z,4.62
2022-12-15T04:09:51.460Z,4.72
2022-12-15T04:10:53.233Z,4.73
2022-12-15T04:11:54.910Z,4.71
2022-12-15T04:13:07.561Z,4.79
2022-12-15T04:14:09.771Z,4.80
2022-12-15T04:15:12.135Z,4.83
2022-12-15T04:16:19.491Z,4.79
2022-12-15T04:17:21.878Z,4.75
2022-12-15T04:18:23.608Z,4.75
2022-12-15T04:19:44.028Z,4.77
2022-12-15T04:20:45.775Z,4.76
2022-12-15T04:21:51.814Z,4.75
2022-12-15T04:22:53.504Z,4.72
2022-12-15T04:24:13.651Z,4.82
2022-12-15T04:25:37.629Z,4.83
2022-12-15T04:26:57.620Z,4.82
2022-12-15T04:28:18.066Z,4.82
2022-12-15T04:29:37.895Z,4.79
2022-12-15T04:31:04.172Z,4.79
2022-12-15T04:32:24.623Z,4.73
2022-12-15T04:33:45.092Z,4.84
2022-12-15T04:35:05.472Z,4.82
2022-12-15T04:36:30.078Z,4.78
2022-12-15T04:37:50.578Z,4.68
2022-12-15T04:39:11.153Z,4.72
2022-12-15T04:40:31.494Z,4.77
2022-12-15T04:41:51.941Z,4.76
2022-12-15T04:43:12.509Z,4.75
2022-12-15T04:44:33.065Z,4.73
2022-12-15T04:45:53.724Z,4.66
2022-12-15T04:47:14.243Z,4.69
2022-12-15T04:48:34.677Z,4.62
2022-12-15T04:49:55.082Z,4.51
2022-12-15T04:51:15.470Z,4.46
2022-12-15T04:52:35.550Z,4.40
2022-12-15T04:53:55.980Z,4.43
2022-12-15T04:55:16.544Z,4.40
2022-12-15T04:56:37.020Z,4.29
2022-12-15T04:57:57.382Z,4.36
2022-12-15T04:59:17.788Z,4.35
2022-12-15T05:00:38.265Z,4.28
2022-12-15T05:01:58.445Z,4.29
2022-12-15T05:03:26.187Z,4.31
2022-12-15T05:04:46.489Z,4.25
2022-12-15T05:06:06.478Z,4.20
2022-12-15T05:07:26.884Z,4.06
2022-12-15T05:08:47.392Z,4.01
2022-12-15T05:10:14.918Z,4.05
2022-12-15T05:11:35.620Z,4.06
2022-12-15T05:12:55.655Z,4.10
2022-12-15T05:14:15.625Z,4.08
2022-12-15T05:15:36.251Z,4.01
2022-12-15T05:16:56.739Z,4.02
2022-12-15T05:18:17.078Z,3.99
2022-12-15T05:19:37.523Z,3.95
2022-12-15T05:20:58.221Z,4.05
2022-12-15T05:22:18.261Z,4.03
2022-12-15T05:23:38.824Z,4.07
2022-12-15T05:24:59.224Z,4.02
2022-12-15T05:26:19.664Z,4.01
2022-12-15T05:27:39.993Z,4.05
2022-12-15T05:28:59.981Z,4.03
2022-12-15T05:30:20.529Z,3.99
2022-12-15T05:31:40.538Z,3.92
2022-12-15T05:32:42.249Z,3.83
2022-12-15T05:33:43.917Z,3.80
2022-12-15T05:34:45.629Z,3.81
2022-12-15T05:35:47.515Z,3.88
2022-12-15T05:36:49.853Z,3.87
2022-12-15T05:37:51.503Z,3.91
2022-12-15T05:38:53.785Z,3.94
2022-12-15T05:39:55.462Z,3.92
2022-12-15T05:40:58.626Z,3.94
2022-12-15T05:42:00.456Z,3.93
2022-12-15T05:43:02.137Z,3.88
2022-12-15T05:44:03.828Z,3.77
2022-12-15T05:45:05.863Z,3.80
2022-12-15T05:46:07.556Z,3.81
2022-12-15T05:47:09.464Z,3.81
2022-12-15T05:48:11.130Z,3.89
2022-12-15T05:49:17.887Z,3.83
2022-12-15T05:50:20.807Z,3.67
2022-12-15T05:51:22.793Z,3.71
2022-12-15T05:52:24.610Z,3.78
2022-12-15T05:53:26.263Z,3.80
2022-12-15T05:54:27.992Z,3.84
2022-12-15T05:55:29.704Z,3.83
2022-12-15T05:56:31.376Z,3.81
2022-12-15T05:57:33.044Z,3.83
2022-12-15T05:58:37.514Z,3.85
2022-12-15T05:59:43.131Z,3.85
2022-12-15T06:00:44.857Z,3.86
2022-12-15T06:01:47.155Z,3.80
2022-12-15T06:02:49.850Z,3.81
2022-12-15T06:03:52.000Z,3.83
2022-12-15T06:04:53.765Z,3.82
2022-12-15T06:05:56.686Z,3.76
2022-12-15T06:06:58.517Z,3.73
2022-12-15T06:08:00.430Z,3.68
2022-12-15T06:09:03.645Z,3.74
2022-12-15T06:10:06.069Z,3.76
2022-12-15T06:11:10.049Z,3.73
2022-12-15T06:12:11.780Z,3.70
2022-12-15T06:13:13.458Z,3.74
2022-12-15T06:14:15.265Z,3.76
2022-12-15T06:15:17.007Z,3.73
2022-12-15T06:16:23.775Z,3.74
2022-12-15T06:17:25.483Z,3.76
2022-12-15T06:18:30.899Z,3.75
2022-12-15T06:19:32.564Z,3.70
2022-12-15T06:20:34.224Z,3.74
2022-12-15T06:21:36.201Z,3.80
2022-12-15T06:22:37.910Z,3.75
2022-12-15T06:23:40.328Z,3.73
2022-12-15T06:24:41.997Z,3.77
2022-12-15T06:25:43.743Z,3.81
2022-12-15T06:26:45.769Z,3.78
2022-12-15T06:27:47.480Z,3.78
2022-12-15T06:28:50.641Z,3.80
2022-12-15T06:29:52.319Z,3.82
2022-12-15T06:30:55.835Z,3.86
2022-12-15T06:31:57.580Z,3.84
2022-12-15T06:32:59.338Z,3.83
2022-12-15T06:34:04.896Z,3.83
2022-12-15T06:35:07.140Z,3.82
2022-12-15T06:36:12.268Z,3.79
2022-12-15T06:37:13.966Z,3.82
2022-12-15T06:38:15.867Z,3.84
2022-12-15T06:39:17.592Z,3.84
2022-12-15T06:40:19.260Z,3.80
2022-12-15T06:41:22.114Z,3.81
2022-12-15T06:42:23.799Z,3.80
2022-12-15T06:43:27.006Z,3.83
2022-12-15T06:44:28.666Z,3.72
2022-12-15T06:45:30.335Z,3.80
2022-12-15T06:46:35.091Z,3.84
2022-12-15T06:47:36.941Z,3.79
2022-12-15T06:48:38.610Z,3.87
2022-12-15T06:49:40.269Z,3.94
2022-12-15T06:50:42.234Z,4.03
2022-12-15T06:51:45.162Z,4.05
2022-12-15T06:52:46.978Z,4.10
2022-12-15T06:53:49.212Z,4.21
2022-12-15T06:54:50.981Z,4.23
2022-12-15T06:55:52.808Z,4.37
2022-12-15T06:56:54.491Z,4.39
2022-12-15T06:57:56.174Z,4.51
2022-12-15T06:59:01.062Z,4.66
2022-12-15T07:00:03.723Z,4.78
2022-12-15T07:01:08.148Z,4.92
2022-12-15T07:02:19.247Z,5.17
2022-12-15T07:03:24.240Z,5.42
2022-12-15T07:04:26.811Z,5.62
2022-12-15T07:05:28.524Z,5.98
2022-12-15T07:06:36.897Z,6.08
2022-12-15T07:07:38.775Z,6.30
2022-12-15T07:08:41.840Z,6.50
2022-12-15T07:09:43.712Z,6.76
2022-12-15T07:10:45.438Z,6.99
2022-12-15T07:11:50.373Z,7.09
2022-12-15T07:12:52.052Z,7.50
2022-12-15T07:13:54.205Z,7.81
2022-12-15T07:14:55.927Z,8.16
2022-12-15T07:16:01.985Z,8.50
2022-12-15T07:17:03.765Z,8.89
2022-12-15T07:18:05.735Z,9.18
2022-12-15T07:19:11.784Z,9.61
2022-12-15T07:20:13.611Z,10.00
2022-12-15T07:21:15.470Z,10.25
2022-12-15T07:22:17.159Z,10.52
2022-12-15T07:23:19.473Z,10.80
2022-12-15T07:24:24.724Z,10.96
2022-12-15T07:25:26.908Z,11.22
2022-12-15T07:26:28.816Z,11.41
2022-12-15T07:27:30.606Z,11.55
2022-12-15T07:28:32.761Z,11.85
2022-12-15T07:29:34.714Z,12.01
2022-12-15T07:30:38.947Z,12.07
2022-12-15T07:31:41.154Z,11.75
2022-12-15T07:32:50.240Z,11.58
2022-12-15T07:33:52.677Z,11.51
2022-12-15T07:34:54.526Z,11.45
2022-12-15T07:35:56.224Z,11.32
2022-12-15T07:36:57.921Z,11.30
2022-12-15T07:38:00.382Z,11.01
2022-12-15T07:39:04.816Z,11.01
2022-12-15T07:40:07.891Z,11.04
2022-12-15T07:41:10.250Z,11.14
2022-12-15T07:42:11.976Z,11.23
2022-12-15T07:43:13.632Z,11.31
2022-12-15T07:44:15.381Z,11.40
2022-12-15T07:45:17.112Z,11.45
2022-12-15T07:46:19.561Z,11.70
2022-12-15T07:47:21.442Z,11.80
2022-12-15T07:48:24.002Z,12.04
2022-12-15T07:49:25.698Z,12.11
2022-12-15T07:50:29.141Z,12.03
2022-12-15T07:51:30.878Z,12.07
2022-12-15T07:52:32.537Z,12.14
2022-12-15T07:53:34.975Z,12.24
2022-12-15T07:54:36.979Z,12.32
2022-12-15T07:56:05.758Z,12.34
2022-12-15T07:57:00.405Z,12.23
2022-12-15T07:58:03.513Z,12.37
2022-12-15T07:59:06.465Z,12.65
2022-12-15T08:00:10.697Z,13.02
2022-12-15T08:01:14.146Z,13.32
2022-12-15T08:02:16.260Z,13.57
2022-12-15T08:03:18.588Z,13.78
2022-12-15T08:04:20.384Z,14.16
2022-12-15T08:05:22.122Z,14.47
2022-12-15T08:06:24.969Z,14.85
2022-12-15T08:07:26.657Z,15.04
2022-12-15T08:08:28.749Z,15.42
2022-12-15T08:09:31.891Z,15.60
2022-12-15T08:10:33.578Z,15.88
2022-12-15T08:11:35.373Z,16.02
2022-12-15T08:12:37.222Z,16.02
2022-12-15T08:15:01.360Z,16.64
2022-12-15T08:16:03.298Z,16.71
2022-12-15T08:17:05.779Z,16.81
2022-12-15T08:18:09.381Z,16.86
2022-12-15T08:19:13.249Z,17.19
2022-12-15T08:20:15.348Z,17.36
2022-12-15T08:21:17.336Z,17.51
2022-12-15T08:22:19.745Z,17.55
2022-12-15T08:23:21.948Z,17.68
2022-12-15T08:24:23.649Z,18.04
2022-12-15T08:25:28.598Z,18.20
2022-12-15T08:26:31.450Z,18.31
2022-12-15T08:27:33.464Z,18.58
2022-12-15T08:28:36.090Z,18.88
2022-12-15T08:29:53.172Z,19.12
2022-12-15T08:30:54.957Z,19.33
2022-12-15T08:31:56.739Z,19.57
2022-12-15T08:32:58.508Z,19.68
2022-12-15T08:34:04.361Z,19.85
2022-12-15T08:35:19.941Z,19.84
2022-12-15T08:36:28.596Z,19.86
2022-12-15T08:37:30.709Z,19.92
2022-12-15T08:38:33.491Z,20.03
2022-12-15T08:39:35.229Z,20.04
2022-12-15T08:40:36.882Z,20.07
2022-12-15T08:41:38.860Z,20.20
2022-12-15T08:42:40.741Z,20.32
2022-12-15T08:43:48.188Z,20.44
2022-12-15T08:44:50.622Z,20.59
2022-12-15T08:45:52.470Z,20.74
2022-12-15T08:46:54.179Z,20.85
2022-12-15T08:47:56.712Z,21.12
2022-12-15T08:48:58.629Z,21.26
2022-12-15T08:50:00.372Z,21.42
2022-12-15T08:51:02.429Z,21.53
2022-12-15T08:52:04.131Z,21.31
2022-12-15T08:53:30.201Z,21.17
2022-12-15T08:54:27.594Z,21.28
2022-12-15T08:55:29.266Z,21.41
2022-12-15T08:56:31.129Z,21.57
2022-12-15T08:57:32.794Z,21.73
2022-12-15T08:58:34.774Z,21.86
2022-12-15T08:59:36.520Z,21.95
2022-12-15T09:00:38.178Z,22.07
2022-12-15T09:01:40.535Z,22.09
2022-12-15T09:02:42.877Z,22.15
2022-12-15T09:03:45.052Z,22.17
2022-12-15T09:04:46.791Z,22.39
2022-12-15T09:05:48.478Z,22.46
2022-12-15T09:06:51.778Z,22.37
2022-12-15T09:08:03.076Z,22.27
2022-12-15T09:09:10.469Z,22.41
2022-12-15T09:10:12.247Z,22.48
2022-12-15T09:11:13.934Z,22.54
2022-12-15T09:12:15.676Z,22.59
2022-12-15T09:13:17.362Z,22.57
2022-12-15T09:14:24.148Z,22.63
2022-12-15T09:16:07.264Z,22.51
2022-12-15T09:16:52.136Z,22.42
2022-12-15T09:17:53.876Z,22.47
2022-12-15T09:18:58.305Z,22.46
2022-12-15T09:19:59.994Z,22.54
2022-12-15T09:21:03.454Z,22.57
2022-12-15T09:22:07.897Z,22.54
2022-12-15T09:23:09.556Z,22.70
2022-12-15T09:24:20.558Z,22.81
2022-12-15T09:25:27.902Z,22.92
2022-12-15T09:26:31.831Z,22.96
2022-12-15T09:27:35.063Z,23.06
2022-12-15T09:28:40.356Z,23.15
2022-12-15T09:29:42.073Z,23.20
2022-12-15T09:30:43.753Z,23.28
2022-12-15T09:31:46.706Z,23.33
2022-12-15T09:32:48.370Z,23.24
2022-12-15T09:33:52.694Z,23.17
2022-12-15T09:34:54.682Z,23.16
2022-12-15T09:35:56.414Z,23.05
2022-12-15T09:36:58.167Z,23.04
2022-12-15T09:37:59.954Z,22.95
2022-12-15T09:39:02.902Z,22.93
2022-12-15T09:40:06.621Z,22.97
2022-12-15T09:41:15.276Z,23.01
2022-12-15T09:42:28.838Z,23.02
2022-12-15T09:43:35.232Z,23.02
2022-12-15T09:44:38.078Z,23.03
2022-12-15T09:45:44.645Z,23.02
2022-12-15T09:46:50.036Z,23.06
2022-12-15T09:48:09.596Z,22.90
2022-12-15T09:49:25.290Z,22.90
2022-12-15T09:50:33.914Z,23.06
2022-12-15T09:51:45.216Z,23.18
2022-12-15T09:52:53.628Z,23.31
2022-12-15T09:53:56.391Z,23.37
2022-12-15T09:54:59.435Z,23.46
2022-12-15T09:56:13.520Z,23.41
2022-12-15T09:57:27.243Z,23.45
2022-12-15T09:58:47.135Z,23.52
2022-12-15T10:00:17.716Z,23.50
2022-12-15T10:01:25.121Z,23.39
2022-12-15T10:02:51.590Z,23.28
2022-12-15T10:04:20.259Z,23.10
2022-12-15T10:06:06.796Z,22.91
2022-12-15T10:07:08.748Z,22.81
2022-12-15T10:08:10.646Z,22.91
2022-12-15T10:09:15.164Z,22.93
2022-12-15T10:10:32.545Z,22.81
2022-12-15T10:11:55.578Z,22.91
2022-12-15T10:13:03.094Z,22.99
2022-12-15T10:14:14.425Z,23.05
2022-12-15T10:15:37.162Z,22.99
2022-12-15T10:17:12.761Z,22.70
2022-12-15T10:18:14.468Z,22.58
2022-12-15T10:19:50.063Z,22.54
2022-12-15T10:20:55.257Z,22.52
2022-12-15T10:21:58.648Z,22.52
2022-12-15T10:23:12.590Z,22.61
2022-12-15T10:24:31.635Z,22.67
2022-12-15T10:25:38.706Z,22.75
2022-12-15T10:26:42.962Z,22.88
2022-12-15T10:27:53.821Z,22.79
2022-12-15T10:29:17.362Z,22.85
2022-12-15T10:30:19.808Z,22.82
2022-12-15T10:31:53.014Z,22.61
2022-12-15T10:32:58.149Z,22.39
2022-12-15T10:34:10.876Z,22.21
2022-12-15T10:35:18.699Z,22.14
2022-12-15T10:36:20.384Z,22.15
2022-12-15T10:37:22.326Z,22.10
2022-12-15T10:38:25.831Z,22.28
2022-12-15T10:39:42.843Z,22.08
2022-12-15T10:40:56.443Z,21.96
2022-12-15T10:42:22.199Z,21.79
2022-12-15T10:43:27.851Z,21.83
2022-12-15T10:44:38.119Z,21.46
2022-12-15T10:45:40.028Z,21.51
2022-12-15T10:46:44.902Z,21.61
2022-12-15T10:47:59.025Z,21.65
2022-12-15T10:49:06.604Z,21.53
2022-12-15T10:50:25.531Z,21.49
2022-12-15T10:51:37.503Z,21.36
2022-12-15T10:52:39.196Z,21.37
2022-12-15T10:53:40.821Z,21.41
2022-12-15T10:54:48.337Z,21.45
2022-12-15T10:56:01.416Z,21.45
2022-12-15T10:57:21.053Z,21.42
2022-12-15T10:58:23.283Z,21.44
2022-12-15T10:59:33.624Z,21.40
2022-12-15T11:00:35.634Z,21.23
2022-12-15T11:01:37.500Z,21.17
2022-12-15T11:02:39.698Z,21.19
2022-12-15T11:03:42.147Z,21.13
2022-12-15T11:05:02.579Z,21.05
2022-12-15T11:06:14.849Z,20.95
2022-12-15T11:07:18.106Z,20.77
2022-12-15T11:08:20.262Z,20.71
2022-12-15T11:09:39.080Z,20.65
2022-12-15T11:11:12.051Z,20.46
2022-12-15T11:12:41.879Z,20.32
2022-12-15T11:14:04.794Z,20.28
2022-12-15T11:15:21.504Z,20.19
2022-12-15T11:16:23.196Z,20.12
2022-12-15T11:17:24.858Z,20.04
2022-12-15T11:20:22.685Z,19.81
2022-12-15T11:21:32.855Z,19.71
2022-12-15T11:22:42.593Z,19.62
2022-12-15T11:24:08.954Z,19.58
2022-12-15T11:25:27.363Z,19.47
2022-12-15T11:26:41.238Z,19.34
2022-12-15T11:27:45.331Z,19.28
2022-12-15T11:29:36.459Z,19.20
2022-12-15T11:31:06.205Z,19.14
2022-12-15T11:32:11.948Z,19.10
2022-12-15T11:33:14.565Z,19.02
2022-12-15T11:34:20.110Z,18.96
2022-12-15T11:35:54.394Z,18.80
2022-12-15T11:37:24.298Z,18.71
2022-12-15T11:38:35.544Z,18.67
2022-12-15T11:39:58.117Z,18.53
2022-12-15T11:41:11.982Z,18.38
2022-12-15T11:42:36.579Z,18.19
2022-12-15T11:44:06.439Z,18.08
2022-12-15T11:45:36.684Z,17.71
2022-12-15T11:46:52.006Z,17.64
2022-12-15T11:48:01.290Z,17.60
2022-12-15T11:49:09.407Z,17.58
2022-12-15T11:50:30.647Z,17.42
2022-12-15T11:51:47.325Z,17.39
2022-12-15T11:53:09.440Z,17.35
2022-12-15T11:54:20.353Z,17.27
2022-12-15T11:55:41.715Z,17.20
2022-12-15T11:56:49.008Z,17.04
2022-12-15T11:58:02.861Z,16.97
2022-12-15T11:59:23.201Z,16.95
2022-12-15T12:00:25.128Z,16.93
2022-12-15T12:01:57.131Z,16.92
2022-12-15T12:03:11.813Z,16.83
2022-12-15T12:04:25.673Z,16.66
2022-12-15T12:05:30.163Z,16.41
2022-12-15T12:06:57.555Z,15.91
2022-12-15T12:08:24.882Z,15.82
2022-12-15T12:09:30.955Z,15.88
2022-12-15T12:11:08.093Z,15.97
2022-12-15T12:12:50.477Z,16.03
2022-12-15T12:14:02.536Z,16.03
2022-12-15T12:15:13.962Z,15.87
2022-12-15T12:16:44.048Z,15.68
2022-12-15T12:17:52.911Z,15.53
2022-12-15T12:19:22.111Z,15.39
2022-12-15T12:20:38.884Z,15.30
2022-12-15T12:21:51.124Z,15.29
2022-12-15T12:23:02.398Z,15.19
2022-12-15T12:24:37.660Z,15.01
2022-12-15T12:25:52.148Z,14.89
2022-12-15T12:27:04.546Z,14.85
2022-12-15T12:28:23.254Z,14.80
2022-12-15T12:29:30.901Z,14.75
2022-12-15T12:30:46.001Z,14.72
2022-12-15T12:32:04.938Z,14.83
2022-12-15T12:33:22.159Z,14.90
2022-12-15T12:35:31.564Z,14.94
2022-12-15T12:36:24.339Z,14.94
2022-12-15T12:37:30.809Z,14.95
2022-12-15T12:39:01.712Z,15.00
2022-12-15T12:40:18.178Z,14.97
2022-12-15T12:41:28.595Z,15.02
2022-12-15T12:42:43.048Z,15.04
2022-12-15T12:43:51.162Z,15.06
2022-12-15T12:44:52.979Z,15.01
2022-12-15T12:46:00.336Z,15.04
2022-12-15T12:47:31.627Z,15.15
2022-12-15T12:48:43.606Z,15.14
2022-12-15T12:49:50.466Z,15.18
2022-12-15T12:51:10.104Z,15.26
2022-12-15T12:52:28.015Z,15.34
2022-12-15T12:53:34.657Z,15.41
2022-12-15T12:54:36.846Z,15.45
2022-12-15T12:55:43.015Z,15.46
2022-12-15T12:56:45.727Z,15.46
2022-12-15T12:57:53.761Z,15.48
2022-12-15T12:58:55.573Z,15.43
2022-12-15T13:00:18.082Z,15.45
2022-12-15T13:01:33.033Z,15.38
2022-12-15T13:02:40.925Z,15.36
2022-12-15T13:03:43.679Z,15.27
2022-12-15T13:04:57.532Z,15.18
2022-12-15T13:05:59.936Z,15.10
2022-12-15T13:07:25.763Z,15.11
2022-12-15T13:08:50.904Z,15.05
2022-12-15T13:10:08.397Z,15.07
2022-12-15T13:11:45.436Z,15.09
2022-12-15T13:12:53.969Z,15.01
2022-12-15T13:13:56.300Z,14.99
2022-12-15T13:14:58.497Z,14.99
2022-12-15T13:16:40.426Z,14.96
2022-12-15T13:18:13.984Z,14.87
2022-12-15T13:19:15.696Z,14.81
2022-12-15T13:20:29.841Z,14.73
2022-12-15T13:21:43.788Z,14.68
2022-12-15T13:22:45.730Z,14.55
2022-12-15T13:23:50.544Z,14.55
2022-12-15T13:24:52.412Z,14.52
2022-12-15T13:25:57.081Z,14.49
2022-12-15T13:27:14.360Z,14.41
2022-12-15T13:28:17.942Z,14.31
2022-12-15T13:29:25.402Z,14.31
2022-12-15T13:30:27.343Z,14.27
2022-12-15T13:31:30.603Z,14.23
2022-12-15T13:32:34.344Z,14.15
2022-12-15T13:33:45.341Z,14.06
2022-12-15T13:34:47.205Z,13.96
2022-12-15T13:35:51.869Z,13.94
2022-12-15T13:36:58.032Z,13.92
2022-12-15T13:38:03.226Z,13.85
2022-12-15T13:39:27.615Z,13.75
2022-12-15T13:40:35.286Z,13.64
2022-12-15T13:41:37.237Z,13.44
2022-12-15T13:42:53.034Z,13.43
2022-12-15T13:44:00.476Z,13.43
2022-12-15T13:45:21.984Z,13.37
2022-12-15T13:46:26.266Z,13.27
2022-12-15T13:47:30.205Z,13.14
2022-12-15T13:48:43.122Z,13.15
2022-12-15T13:50:01.373Z,13.00
2022-12-15T13:51:23.153Z,12.96
2022-12-15T13:54:16.336Z,12.82
2022-12-15T13:55:28.371Z,12.79
2022-12-15T13:57:10.059Z,12.69
2022-12-15T13:58:20.466Z,12.72
2022-12-15T13:59:37.540Z,12.75
2022-12-15T14:00:47.656Z,12.69
2022-12-15T14:01:52.335Z,12.67
2022-12-15T14:03:09.854Z,12.51
2022-12-15T14:04:16.722Z,12.57
2022-12-15T14:05:22.657Z,12.61
2022-12-15T14:06:24.554Z,12.61
2022-12-15T14:07:27.190Z,12.65
2022-12-15T14:08:30.614Z,12.64
2022-12-15T14:09:42.176Z,12.67
2022-12-15T14:10:49.190Z,12.63
2022-12-15T14:11:54.211Z,12.50
2022-12-15T14:13:01.173Z,12.54
2022-12-15T14:14:03.399Z,12.57
2022-12-15T14:15:05.492Z,12.51
2022-12-15T14:16:21.884Z,12.57
2022-12-15T14:17:23.810Z,12.54
2022-12-15T14:18:44.346Z,12.53
2022-12-15T14:19:51.216Z,12.50
2022-12-15T14:20:53.590Z,12.52
2022-12-15T14:21:57.530Z,12.50
2022-12-15T14:23:00.718Z,12.45
2022-12-15T14:25:25.730Z,12.42
2022-12-15T14:26:31.010Z,12.40
2022-12-15T14:27:34.280Z,12.37
2022-12-15T14:28:38.363Z,12.37
2022-12-15T14:29:40.026Z,12.31
2022-12-15T14:30:41.848Z,12.26
2022-12-15T14:31:49.519Z,12.21
2022-12-15T14:33:13.916Z,12.22
2022-12-15T14:34:25.830Z,12.19
2022-12-15T14:35:35.399Z,12.16
2022-12-15T14:36:37.502Z,12.08
2022-12-15T14:37:39.858Z,11.99
2022-12-15T14:38:46.497Z,11.79
2022-12-15T14:39:50.264Z,11.86
2022-12-15T14:40:56.627Z,11.72
2022-12-15T14:42:01.416Z,11.77
2022-12-15T14:43:04.841Z,11.73
2022-12-15T14:44:36.887Z,11.63
2022-12-15T14:45:39.506Z,11.50
2022-12-15T14:46:46.606Z,11.47
2022-12-15T14:49:21.605Z,11.44
2022-12-15T14:50:25.423Z,11.40
2022-12-15T14:51:29.915Z,11.37
2022-12-15T14:52:39.037Z,11.29
2022-12-15T14:53:43.354Z,11.22
2022-12-15T14:54:58.486Z,11.25
2022-12-15T14:56:33.069Z,11.16
2022-12-15T14:57:53.481Z,11.14
2022-12-15T14:59:17.785Z,11.16
2022-12-15T15:00:34.682Z,11.11
2022-12-15T15:01:58.274Z,11.02
2022-12-15T15:03:11.430Z,11.49
2022-12-15T15:03:12.081Z,19.92
2022-12-15T15:03:20.040Z,10.90
2022-12-15T15:04:21.988Z,10.85
2022-12-15T15:05:27.952Z,10.70
2022-12-15T15:06:40.251Z,10.62
2022-12-15T15:07:45.426Z,10.46
2022-12-15T15:08:52.943Z,10.29
2022-12-15T15:09:55.047Z,10.11
2022-12-15T15:11:00.516Z,10.09
2022-12-15T15:12:08.748Z,9.82
2022-12-15T15:13:19.626Z,9.75
2022-12-15T15:14:28.667Z,9.79
2022-12-15T15:15:30.396Z,9.80
2022-12-15T15:16:32.261Z,9.90